Time;durP1;ratioP1;P1;durP2;ratioP2;P2;SDS_P1;SDS_P2;PMS_P1;PMS_P2;Temp;Humidity;BMP_temperature;BMP_pressure;BME280_temperature;BME280_humidity;BME280_pressure;Samples;Min_cycle;Max_cycle;Signal;HPM_P1;HPM_P2
2023/12/27 00:01:22;;;;;;;18.73;5.82;;;;;;;4.18;80.23;100640.97;5094661;28;20526;-86
2023/12/27 00:03:48;;;;;;;27.57;6.10;;;;;;;4.22;80.10;100635.00;5094285;28;20028;-86
2023/12/27 00:06:13;;;;;;;26.93;6.00;;;;;;;4.24;80.47;100635.03;5094014;28;20127;-88
2023/12/27 00:08:39;;;;;;;21.27;5.57;;;;;;;4.21;80.12;100641.03;5094299;28;20032;-86
2023/12/27 00:11:04;;;;;;;30.52;5.60;;;;;;;4.18;80.05;100633.13;5094020;28;20024;-85
2023/12/27 00:13:30;;;;;;;16.73;5.80;;;;;;;4.10;80.24;100632.03;5093857;28;20024;-83
2023/12/27 00:15:55;;;;;;;25.03;5.57;;;;;;;4.07;80.32;100631.97;5092600;28;20028;-88
2023/12/27 00:18:21;;;;;;;36.13;6.13;;;;;;;3.98;80.68;100620.44;5092635;28;20024;-85
2023/12/27 00:20:47;;;;;;;50.95;7.20;;;;;;;3.97;80.64;100625.59;5082338;28;20114;-87
2023/12/27 00:23:13;;;;;;;26.65;6.63;;;;;;;3.93;80.45;100614.19;5095886;28;20549;-87
2023/12/27 00:25:39;;;;;;;28.80;5.82;;;;;;;3.89;80.73;100609.75;5105157;28;20115;-88
2023/12/27 00:28:04;;;;;;;51.57;7.23;;;;;;;3.85;81.39;100608.75;5092705;28;20155;-83
2023/12/27 00:30:31;;;;;;;31.40;6.90;;;;;;;3.84;81.18;100613.94;5092459;28;20055;-85
2023/12/27 00:32:57;;;;;;;67.40;7.72;;;;;;;3.81;81.41;100608.66;5092662;28;20492;-89
2023/12/27 00:35:22;;;;;;;69.70;10.40;;;;;;;3.77;81.73;100614.63;5092216;28;20143;-88
2023/12/27 00:37:48;;;;;;;34.77;7.80;;;;;;;3.67;81.94;100616.94;5092493;28;20046;-87
2023/12/27 00:40:13;;;;;;;60.97;8.03;;;;;;;3.65;82.18;100608.19;5091813;28;20027;-87
2023/12/27 00:42:39;;;;;;;54.53;9.65;;;;;;;3.63;82.84;100612.47;5092207;28;20391;-87
2023/12/27 00:45:05;;;;;;;65.23;8.83;;;;;;;3.58;82.74;100603.66;5091616;28;20039;-85
2023/12/27 00:47:30;;;;;;;97.93;8.75;;;;;;;3.53;82.68;100598.28;5092035;28;20102;-88
2023/12/27 00:49:56;;;;;;;48.73;6.73;;;;;;;3.44;82.54;100604.09;5091841;28;20460;-87
2023/12/27 00:52:21;;;;;;;47.33;7.23;;;;;;;3.46;82.51;100609.38;5091831;28;20107;-87
2023/12/27 00:54:46;;;;;;;37.30;8.27;;;;;;;3.49;82.50;100612.06;5091963;28;20058;-87
2023/12/27 00:57:12;;;;;;;45.70;8.18;;;;;;;3.52;82.73;100600.88;5092022;28;20403;-87
2023/12/27 00:59:37;;;;;;;48.07;7.23;;;;;;;3.49;82.48;100618.97;5091503;28;20495;-88
2023/12/27 01:02:03;;;;;;;19.30;6.63;;;;;;;3.48;82.16;100614.59;5091614;28;20490;-87
2023/12/27 01:04:28;;;;;;;27.70;6.68;;;;;;;3.50;82.34;100619.03;5072993;28;20039;-88
2023/12/27 01:06:54;;;;;;;51.57;7.23;;;;;;;3.51;82.33;100625.13;5091615;28;20032;-88
2023/12/27 01:09:19;;;;;;;20.47;6.00;;;;;;;3.50;82.37;100619.03;5091525;28;20070;-89
2023/12/27 01:11:45;;;;;;;45.33;6.27;;;;;;;3.54;82.27;100615.69;5091423;28;20626;-87
2023/12/27 01:14:10;;;;;;;38.20;6.83;;;;;;;3.52;82.38;100619.09;5091177;28;20501;-87
2023/12/27 01:16:35;;;;;;;31.53;6.90;;;;;;;3.48;82.30;100614.59;5091421;28;20262;-88
2023/12/27 01:19:01;;;;;;;27.67;6.37;;;;;;;3.43;82.42;100609.28;5091511;28;20016;-89
2023/12/27 01:21:26;;;;;;;44.43;6.17;;;;;;;3.41;82.49;100608.34;5103541;28;20468;-88
2023/12/27 01:23:51;;;;;;;32.97;6.33;;;;;;;3.36;82.73;100605.59;5110150;28;20119;-88
2023/12/27 01:26:17;;;;;;;32.50;6.15;;;;;;;3.37;82.15;100611.66;5099343;28;20498;-86
2023/12/27 01:28:42;;;;;;;29.10;6.80;;;;;;;3.30;82.69;100618.44;5090829;28;20028;-88
2023/12/27 01:31:09;;;;;;;27.43;6.10;;;;;;;3.29;83.14;100611.47;5091429;28;20085;-88
2023/12/27 01:33:35;;;;;;;22.73;5.18;;;;;;;3.32;82.56;100608.94;5091123;28;20034;-87
2023/12/27 01:36:08;;;;;;;24.17;6.50;;;;;;;3.31;82.46;100609.78;5090553;28;20028;-87
2023/12/27 01:38:33;;;;;;;21.08;5.60;;;;;;;3.29;82.69;100612.31;5090913;28;20576;-88
2023/12/27 01:40:59;;;;;;;15.87;6.10;;;;;;;3.26;82.40;100614.84;5091272;28;20024;-87
2023/12/27 01:43:24;;;;;;;27.45;6.55;;;;;;;3.26;82.45;100619.16;5090912;28;20024;-86
2023/12/27 01:45:50;;;;;;;22.30;6.30;;;;;;;3.30;82.69;100610.63;5090722;28;20078;-89
2023/12/27 01:48:20;;;;;;;29.77;6.97;;;;;;;3.27;82.47;100615.72;5090851;28;20028;-87
2023/12/27 01:50:47;;;;;;;46.40;6.60;;;;;;;3.28;82.49;100615.75;5072438;28;20028;-87
2023/12/27 01:53:13;;;;;;;19.55;6.03;;;;;;;3.26;82.41;100604.44;5072393;28;20438;-87
2023/12/27 01:55:38;;;;;;;20.63;5.80;;;;;;;3.29;82.63;100611.47;5072061;28;20024;-88
2023/12/27 01:58:08;;;;;;;15.33;6.07;;;;;;;3.34;82.41;100609.88;5090676;28;20035;-88
2023/12/27 02:00:39;;;;;;;38.15;6.28;;;;;;;3.32;82.20;100608.03;5090169;28;20559;-87
2023/12/27 02:03:05;;;;;;;16.05;5.15;;;;;;;3.30;82.09;100610.63;5090451;28;20028;-87
2023/12/27 02:05:31;;;;;;;24.37;6.17;;;;;;;3.34;82.10;100607.28;5090732;28;20026;-89
2023/12/27 02:07:58;;;;;;;17.20;6.07;;;;;;;3.37;82.43;100602.16;5090441;28;20175;-87
2023/12/27 02:10:23;;;;;;;18.00;6.65;;;;;;;3.37;82.23;100602.16;5090388;28;20084;-86
2023/12/27 02:12:49;;;;;;;21.00;6.77;;;;;;;3.38;82.13;100603.91;5090496;28;20051;-88
2023/12/27 02:15:14;;;;;;;18.80;5.93;;;;;;;3.40;82.04;100604.84;5089657;28;20480;-87
2023/12/27 02:17:40;;;;;;;20.07;5.93;;;;;;;3.45;82.29;100605.88;5090224;28;20043;-88
2023/12/27 02:20:06;;;;;;;24.03;6.67;;;;;;;3.48;82.06;100599.88;5091128;28;20065;-87
2023/12/27 02:22:34;;;;;;;20.15;5.88;;;;;;;3.52;81.92;100606.06;5110465;28;20027;-87
2023/12/27 02:24:59;;;;;;;16.05;5.25;;;;;;;3.56;81.96;100600.13;5089681;28;20024;-86
2023/12/27 02:27:25;;;;;;;18.90;6.10;;;;;;;3.63;81.98;100599.44;5090129;28;20051;-87
2023/12/27 02:29:50;;;;;;;25.80;6.47;;;;;;;3.67;81.96;100590.88;5089962;28;20028;-86
2023/12/27 02:32:16;;;;;;;32.80;6.90;;;;;;;3.62;81.51;100586.38;5071518;28;20024;-86
2023/12/27 02:34:41;;;;;;;22.80;6.07;;;;;;;3.54;81.59;100593.97;5089915;28;20028;-86
2023/12/27 02:37:06;;;;;;;22.90;6.50;;;;;;;3.54;82.05;100588.78;5089939;28;20032;-87
2023/12/27 02:39:32;;;;;;;24.80;7.23;;;;;;;3.53;82.13;100584.41;5071718;28;20463;-86
2023/12/27 02:41:57;;;;;;;25.67;6.13;;;;;;;3.50;81.88;100574.78;5071686;28;20024;-87
2023/12/27 02:44:26;;;;;;;19.90;6.10;;;;;;;3.52;82.04;100570.50;5089492;28;20103;-86
2023/12/27 02:46:54;;;;;;;25.50;7.18;;;;;;;3.59;81.79;100574.16;5089774;28;20460;-86
2023/12/27 02:49:20;;;;;;;23.40;6.77;;;;;;;3.58;81.96;100565.44;5090152;28;20391;-87
2023/12/27 02:51:46;;;;;;;26.02;6.45;;;;;;;3.63;81.71;100564.72;5071460;28;20022;-88
2023/12/27 02:54:11;;;;;;;31.80;6.23;;;;;;;3.60;81.87;100565.50;5089692;28;20032;-87
2023/12/27 02:56:36;;;;;;;15.23;5.83;;;;;;;3.55;82.04;100567.09;5089659;28;20054;-88
2023/12/27 02:59:02;;;;;;;25.13;6.10;;;;;;;3.50;82.22;100568.69;5089310;28;20020;-86
2023/12/27 03:01:27;;;;;;;23.63;6.50;;;;;;;3.50;81.96;100561.75;5089697;28;20650;-85
2023/12/27 03:03:53;;;;;;;18.93;7.07;;;;;;;3.54;82.22;100553.19;5089846;28;20020;-84
2023/12/27 03:06:18;;;;;;;53.93;7.00;;;;;;;3.57;82.16;100547.19;5089593;28;20044;-84
2023/12/27 03:08:43;;;;;;;29.00;6.33;;;;;;;3.58;81.67;100546.34;5071640;28;20035;-85
2023/12/27 03:11:09;;;;;;;34.33;6.47;;;;;;;3.59;81.41;100537.72;5089839;28;20082;-87
2023/12/27 03:13:34;;;;;;;17.70;5.63;;;;;;;3.56;81.30;100532.41;5071391;28;20063;-87
2023/12/27 03:16:07;;;;;;;14.97;5.50;;;;;;;3.53;82.03;100530.59;5089502;28;20032;-87
2023/12/27 03:18:33;;;;;;;18.00;6.07;;;;;;;3.56;81.58;100535.03;5089589;28;20089;-85
2023/12/27 03:20:59;;;;;;;20.13;5.45;;;;;;;3.61;81.47;100522.09;5098053;28;20273;-88
2023/12/27 03:23:24;;;;;;;20.42;6.32;;;;;;;3.65;81.60;100517.03;5091543;28;20302;-86
2023/12/27 03:25:50;;;;;;;68.73;7.30;;;;;;;3.66;81.39;100516.19;5100566;28;20295;-84
2023/12/27 03:28:15;;;;;;;37.60;6.57;;;;;;;3.59;81.19;100504.72;5092903;28;20391;-85
2023/12/27 03:30:40;;;;;;;26.80;6.13;;;;;;;3.52;81.33;100504.53;5093665;28;20115;-85
2023/12/27 03:33:06;;;;;;;26.27;5.97;;;;;;;3.52;81.28;100502.78;5093398;28;20081;-86
2023/12/27 03:35:31;;;;;;;49.07;5.97;;;;;;;3.52;81.47;100507.13;5093315;28;20108;-86
2023/12/27 03:37:57;;;;;;;31.93;6.47;;;;;;;3.47;81.15;100506.09;5093259;28;20277;-86
2023/12/27 03:40:22;;;;;;;19.87;5.93;;;;;;;3.39;81.28;100496.34;5075163;28;20048;-88
2023/12/27 03:42:48;;;;;;;42.40;7.00;;;;;;;3.36;81.61;100496.25;5093205;28;20094;-88
2023/12/27 03:45:13;;;;;;;25.98;6.40;;;;;;;3.32;81.44;100499.63;5092863;28;20032;-88
2023/12/27 03:47:38;;;;;;;20.80;5.90;;;;;;;3.28;81.94;100495.16;5074951;28;20203;-87
2023/12/27 03:50:04;;;;;;;37.23;6.23;;;;;;;3.30;81.48;100490.88;5092962;28;20495;-87
2023/12/27 03:52:30;;;;;;;49.03;5.85;;;;;;;3.26;81.41;100492.50;5093118;28;20186;-88
2023/12/27 03:54:55;;;;;;;29.63;5.43;;;;;;;3.19;81.47;100492.28;5074677;28;20031;-87
2023/12/27 03:57:20;;;;;;;17.87;4.83;;;;;;;3.14;81.79;100490.41;5092725;28;20416;-88
2023/12/27 03:59:46;;;;;;;28.37;5.50;;;;;;;3.14;81.64;100487.81;5092352;28;20074;-88
2023/12/27 04:02:11;;;;;;;36.90;5.57;;;;;;;3.14;81.91;100477.41;5093163;28;20032;-89
2023/12/27 04:04:39;;;;;;;22.87;5.07;;;;;;;3.15;81.73;100480.91;5093125;28;20109;-87
2023/12/27 04:07:05;;;;;;;31.50;4.73;;;;;;;3.14;81.79;100477.41;5092868;28;20293;-87
2023/12/27 04:09:30;;;;;;;21.63;5.03;;;;;;;3.15;82.01;100476.56;5092823;28;20099;-87
2023/12/27 04:11:55;;;;;;;26.73;4.87;;;;;;;3.13;81.36;100467.84;5092655;28;20054;-87
2023/12/27 04:14:21;;;;;;;36.60;4.57;;;;;;;3.10;81.19;100474.66;5092719;28;20035;-87
2023/12/27 04:16:46;;;;;;;23.13;4.90;;;;;;;3.08;81.34;100479.84;5092365;28;20073;-88
2023/12/27 04:19:12;;;;;;;35.60;4.73;;;;;;;3.04;80.97;100470.19;5074417;28;20439;-86
2023/12/27 04:21:37;;;;;;;25.27;4.63;;;;;;;3.03;81.74;100457.13;5106492;28;20111;-89
2023/12/27 04:24:03;;;;;;;25.73;4.60;;;;;;;3.07;81.71;100457.25;5110897;28;20046;-87
2023/12/27 04:26:28;;;;;;;34.63;4.50;;;;;;;3.04;80.91;100458.88;5092278;28;20026;-87
2023/12/27 04:28:53;;;;;;;20.43;4.20;;;;;;;3.01;81.41;100451.84;5073800;28;20028;-87
2023/12/27 04:31:19;;;;;;;24.87;3.80;;;;;;;3.01;81.27;100457.94;5092388;28;20026;-86
2023/12/27 04:33:44;;;;;;;20.27;4.10;;;;;;;2.98;80.95;100456.97;5092210;28;20093;-86
2023/12/27 04:36:09;;;;;;;29.53;4.73;;;;;;;2.94;80.86;100455.13;5092170;28;20345;-88
2023/12/27 04:38:35;;;;;;;43.17;4.83;;;;;;;2.91;81.11;100450.72;5090899;28;20024;-87
2023/12/27 04:41:07;;;;;;;28.10;4.13;;;;;;;2.85;80.97;100454.00;5092304;28;20027;-87
2023/12/27 04:43:32;;;;;;;22.50;4.30;;;;;;;2.79;81.27;100451.22;5091725;28;20030;-86
2023/12/27 04:45:57;;;;;;;15.83;4.00;;;;;;;2.79;80.98;100453.84;5092093;28;20032;-87
2023/12/27 04:48:23;;;;;;;29.83;4.53;;;;;;;2.79;80.80;100456.44;5092118;28;20426;-87
2023/12/27 04:50:48;;;;;;;12.40;3.93;;;;;;;2.79;81.16;100456.44;5091953;28;20262;-89
2023/12/27 04:53:14;;;;;;;29.37;4.20;;;;;;;2.78;81.19;100453.78;5091806;28;20024;-87
2023/12/27 04:55:39;;;;;;;13.43;3.80;;;;;;;2.80;80.89;100447.78;5091914;28;20100;-89
2023/12/27 04:58:05;;;;;;;25.65;4.25;;;;;;;2.75;81.07;100446.75;5092158;28;20027;-88
2023/12/27 05:00:30;;;;;;;47.83;4.43;;;;;;;2.66;81.38;100449.97;5091619;28;20052;-87
2023/12/27 05:02:55;;;;;;;30.50;4.30;;;;;;;2.63;80.93;100443.78;5092006;28;20028;-87
2023/12/27 05:05:21;;;;;;;10.63;3.70;;;;;;;2.62;81.59;100437.69;5092447;28;20192;-89
2023/12/27 05:07:47;;;;;;;11.15;3.72;;;;;;;2.64;81.09;100441.22;5091647;28;20434;-86
2023/12/27 05:10:12;;;;;;;14.83;4.17;;;;;;;2.64;81.08;100440.34;5091957;28;20477;-88
2023/12/27 05:12:37;;;;;;;22.30;4.20;;;;;;;2.61;81.22;100435.06;5091596;28;20506;-88
2023/12/27 05:15:03;;;;;;;67.27;6.10;;;;;;;2.60;81.17;100438.50;5091048;28;20551;-88
2023/12/27 05:17:29;;;;;;;52.83;5.30;;;;;;;2.53;80.80;100434.81;5091556;28;20388;-89
2023/12/27 05:19:54;;;;;;;68.07;5.37;;;;;;;2.48;80.62;100437.25;5073103;28;20504;-88
2023/12/27 05:22:20;;;;;;;50.43;5.47;;;;;;;2.44;80.87;100428.50;5093865;28;20067;-87
2023/12/27 05:24:46;;;;;;;38.13;4.70;;;;;;;2.38;80.75;100432.63;5099628;28;20035;-88
2023/12/27 05:27:12;;;;;;;19.48;3.85;;;;;;;2.31;81.35;100433.25;5091703;28;20530;-87
2023/12/27 05:29:38;;;;;;;20.83;4.33;;;;;;;2.25;80.96;100431.34;5090872;28;20435;-88
2023/12/27 05:32:04;;;;;;;24.90;3.90;;;;;;;2.23;81.46;100438.19;5091000;28;20061;-86
2023/12/27 05:34:29;;;;;;;25.77;4.20;;;;;;;2.18;81.13;100429.38;5091104;28;20055;-88
2023/12/27 05:36:55;;;;;;;17.83;4.13;;;;;;;2.19;81.40;100433.75;5090995;28;20028;-85
2023/12/27 05:39:20;;;;;;;20.60;4.13;;;;;;;2.23;81.12;100430.41;5072691;28;20059;-87
2023/12/27 05:41:45;;;;;;;18.23;4.03;;;;;;;2.22;81.12;100434.69;5091121;28;20032;-88
2023/12/27 05:44:11;;;;;;;15.50;4.20;;;;;;;2.25;81.25;100440.00;5091164;28;20048;-88
2023/12/27 05:46:36;;;;;;;23.07;4.60;;;;;;;2.29;81.09;100434.09;5090985;28;20028;-84
2023/12/27 05:49:02;;;;;;;26.55;4.90;;;;;;;2.29;81.18;100436.69;5090326;28;20047;-87
2023/12/27 05:51:28;;;;;;;18.57;4.63;;;;;;;2.28;80.78;100436.63;5072309;28;20031;-86
2023/12/27 05:53:53;;;;;;;14.02;4.20;;;;;;;2.25;80.95;100437.41;5091385;28;20077;-87
2023/12/27 05:56:19;;;;;;;12.23;4.57;;;;;;;2.26;81.75;100438.28;5072778;28;20024;-86
2023/12/27 05:58:44;;;;;;;19.53;4.47;;;;;;;2.28;81.15;100447.88;5071811;28;20446;-88
2023/12/27 06:01:10;;;;;;;24.50;5.05;;;;;;;2.23;81.41;100456.38;5072368;28;20020;-87
2023/12/27 06:03:35;;;;;;;12.93;4.30;;;;;;;2.25;81.43;100454.72;5090619;28;20440;-87
2023/12/27 06:06:02;;;;;;;10.30;4.27;;;;;;;2.28;81.55;100450.47;5072251;28;20024;-89
2023/12/27 06:08:27;;;;;;;21.40;4.20;;;;;;;2.31;81.23;100434.13;5090875;28;20051;-86
2023/12/27 06:10:53;;;;;;;14.70;3.70;;;;;;;2.24;80.96;100448.63;5090441;28;20500;-87
2023/12/27 06:13:18;;;;;;;8.53;3.90;;;;;;;2.23;81.45;100456.38;5090421;28;20099;-88
2023/12/27 06:15:44;;;;;;;14.63;4.55;;;;;;;2.24;81.59;100443.44;5071814;28;20016;-88
2023/12/27 06:18:09;;;;;;;10.83;4.03;;;;;;;2.17;81.77;100446.66;5090232;28;20031;-88
2023/12/27 06:20:34;;;;;;;15.47;4.20;;;;;;;2.17;81.30;100444.06;5095445;28;20476;-86
2023/12/27 06:23:00;;;;;;;14.45;4.50;;;;;;;2.11;81.50;100444.75;5092102;28;20047;-89
2023/12/27 06:25:25;;;;;;;14.60;4.83;;;;;;;2.11;81.24;100454.25;5104475;28;20020;-89
2023/12/27 06:27:51;;;;;;;13.00;4.60;;;;;;;2.07;81.39;100452.41;5071907;28;20024;-88
2023/12/27 06:30:18;;;;;;;16.35;5.00;;;;;;;2.08;81.80;100454.16;5071693;28;20055;-87
2023/12/27 06:32:43;;;;;;;14.40;4.57;;;;;;;2.11;82.10;100454.25;5090214;28;20024;-87
2023/12/27 06:35:09;;;;;;;15.30;4.50;;;;;;;2.08;81.53;100451.56;5090381;28;20028;-89
2023/12/27 06:37:34;;;;;;;13.63;4.57;;;;;;;2.06;82.00;100445.44;5090269;28;20055;-87
2023/12/27 06:39:59;;;;;;;11.03;4.97;;;;;;;2.06;81.30;100441.13;5090029;28;20028;-87
2023/12/27 06:42:25;;;;;;;22.00;4.83;;;;;;;2.07;80.97;100442.00;5090193;28;20059;-86
2023/12/27 06:44:50;;;;;;;19.33;4.97;;;;;;;2.06;81.79;100445.44;5089390;28;20487;-88
2023/12/27 06:47:15;;;;;;;37.43;5.47;;;;;;;2.01;81.38;100448.75;5089908;28;20285;-88
2023/12/27 06:49:41;;;;;;;12.10;4.70;;;;;;;1.97;81.15;100440.81;5071574;28;20024;-85
2023/12/27 06:52:06;;;;;;;44.60;6.50;;;;;;;1.90;81.50;100434.53;5090111;28;20462;-88
2023/12/27 06:54:32;;;;;;;15.97;5.40;;;;;;;1.89;82.38;100439.66;5089578;28;20082;-88
2023/12/27 06:56:59;;;;;;;36.70;6.57;;;;;;;1.86;81.46;100441.31;5089593;28;20063;-85
2023/12/27 06:59:26;;;;;;;12.67;5.17;;;;;;;1.82;82.17;100438.59;5089230;28;20039;-86
2023/12/27 07:01:51;;;;;;;36.47;5.18;;;;;;;1.71;82.36;100438.22;5089123;28;20028;-89
2023/12/27 07:04:16;;;;;;;33.33;4.60;;;;;;;1.68;82.06;100441.56;5089910;28;20105;-87
2023/12/27 07:06:42;;;;;;;33.63;5.13;;;;;;;1.63;82.01;100437.94;5071650;28;20032;-86
2023/12/27 07:09:09;;;;;;;17.80;5.03;;;;;;;1.59;82.11;100433.47;5089684;28;20055;-86
2023/12/27 07:11:34;;;;;;;21.08;4.47;;;;;;;1.52;82.36;100437.56;5089742;28;20063;-87
2023/12/27 07:14:00;;;;;;;16.10;4.67;;;;;;;1.58;81.78;100444.69;5088885;28;20458;-87
2023/12/27 07:16:25;;;;;;;37.73;5.47;;;;;;;1.63;82.46;100445.72;5071069;28;20468;-88
2023/12/27 07:18:50;;;;;;;14.97;4.60;;;;;;;1.69;81.51;100448.53;5089520;28;20540;-87
2023/12/27 07:21:16;;;;;;;13.60;4.67;;;;;;;1.75;81.37;100449.56;5100550;28;20028;-89
2023/12/27 07:23:41;;;;;;;20.63;4.97;;;;;;;1.81;82.04;100460.16;5108389;28;20127;-88
2023/12/27 07:26:11;;;;;;;29.07;4.50;;;;;;;1.88;81.14;100456.06;5099170;28;20032;-88
2023/12/27 07:28:37;;;;;;;21.35;4.82;;;;;;;1.89;81.62;100450.03;5089466;28;20028;-87
2023/12/27 07:31:03;;;;;;;13.37;5.17;;;;;;;1.92;80.92;100455.34;5089532;28;20554;-86
2023/12/27 07:33:28;;;;;;;53.25;6.15;;;;;;;1.88;81.50;100454.38;5089178;28;20032;-89
2023/12/27 07:35:54;;;;;;;10.53;4.43;;;;;;;1.88;81.17;100451.78;5089122;28;20043;-89
2023/12/27 07:38:19;;;;;;;28.23;5.53;;;;;;;1.89;80.74;100458.72;5089533;28;20024;-81
2023/12/27 07:40:44;;;;;;;24.83;4.60;;;;;;;1.85;81.66;100456.88;5089250;28;20024;-81
2023/12/27 07:43:10;;;;;;;16.27;4.60;;;;;;;1.84;80.93;100457.69;5089398;28;20085;-85
2023/12/27 07:45:35;;;;;;;23.37;6.10;;;;;;;1.84;81.52;100463.75;5088714;28;20341;-82
2023/12/27 07:48:01;;;;;;;52.70;5.50;;;;;;;1.81;81.19;100455.88;5088988;28;20028;-82
2023/12/27 07:50:26;;;;;;;25.17;5.30;;;;;;;1.82;81.11;100451.56;5089357;28;20020;-85
2023/12/27 07:52:52;;;;;;;31.02;5.38;;;;;;;1.82;81.39;100451.56;5089019;28;20069;-82
2023/12/27 07:55:18;;;;;;;34.30;5.80;;;;;;;1.84;80.83;100461.16;5089282;28;20090;-81
2023/12/27 07:57:45;;;;;;;12.83;4.77;;;;;;;1.81;81.42;100449.78;5088895;28;20400;-81
2023/12/27 08:00:14;;;;;;;42.55;5.90;;;;;;;1.85;80.84;100454.25;5088797;28;20032;-81
2023/12/27 08:02:39;;;;;;;28.75;5.80;;;;;;;1.85;81.18;100451.66;5089082;28;20039;-81
2023/12/27 08:05:04;;;;;;;25.93;5.23;;;;;;;1.87;80.57;100450.00;5089206;28;20110;-81
2023/12/27 08:07:30;;;;;;;18.20;6.10;;;;;;;1.88;80.96;100451.78;5088870;28;20032;-82
2023/12/27 08:09:55;;;;;;;27.57;5.77;;;;;;;1.91;81.46;100451.88;5088768;28;20024;-82
2023/12/27 08:12:21;;;;;;;15.10;5.33;;;;;;;1.93;80.86;100449.31;5089160;28;20559;-82
2023/12/27 08:14:46;;;;;;;27.30;5.90;;;;;;;1.97;80.67;100448.59;5092447;28;20092;-82
2023/12/27 08:17:11;;;;;;;18.90;5.90;;;;;;;1.95;81.20;100451.13;5074417;28;20048;-83
2023/12/27 08:19:37;;;;;;;22.02;6.38;;;;;;;1.97;80.69;100446.88;5092436;28;20076;-87
2023/12/27 08:22:03;;;;;;;22.97;6.47;;;;;;;2.05;81.56;100454.03;5110416;28;20483;-82
2023/12/27 08:24:29;;;;;;;20.92;7.10;;;;;;;2.09;81.37;100453.34;5111466;28;20427;-81
2023/12/27 08:26:54;;;;;;;19.73;6.33;;;;;;;2.14;80.90;100450.03;5095299;28;20046;-82
2023/12/27 08:29:20;;;;;;;21.70;6.60;;;;;;;2.19;80.71;100447.59;5074074;28;20020;-81
2023/12/27 08:31:45;;;;;;;22.80;6.82;;;;;;;2.24;80.99;100456.41;5092506;28;20027;-84
2023/12/27 08:34:10;;;;;;;14.73;6.27;;;;;;;2.31;80.47;100454.91;5092199;28;20245;-82
2023/12/27 08:36:36;;;;;;;16.73;6.07;;;;;;;2.47;80.43;100458.03;5092074;28;20031;-86
2023/12/27 08:39:01;;;;;;;14.33;5.90;;;;;;;2.56;80.17;100464.41;5073737;28;20100;-81
2023/12/27 08:41:27;;;;;;;16.23;6.00;;;;;;;2.59;79.89;100450.59;5092186;28;20036;-85
2023/12/27 08:43:53;;;;;;;15.47;6.10;;;;;;;2.55;79.45;100447.03;5091601;28;20829;-83
2023/12/27 08:46:20;;;;;;;20.13;6.50;;;;;;;2.52;80.13;100441.72;5092033;28;20482;-82
2023/12/27 08:48:46;;;;;;;18.33;6.00;;;;;;;2.47;79.69;100445.88;5092102;28;20328;-81
2023/12/27 08:51:12;;;;;;;15.05;6.20;;;;;;;2.54;80.19;100447.88;5091608;28;20044;-81
2023/12/27 08:53:37;;;;;;;15.43;6.57;;;;;;;2.61;79.64;100450.66;5091908;28;20043;-84
2023/12/27 08:56:04;;;;;;;18.63;6.93;;;;;;;2.61;80.30;100450.66;5091693;28;20492;-85
2023/12/27 08:58:29;;;;;;;18.38;6.93;;;;;;;2.58;80.42;100444.53;5073096;28;20020;-82
2023/12/27 09:00:55;;;;;;;19.93;7.07;;;;;;;2.54;79.67;100450.47;5092056;28;20070;-82
2023/12/27 09:03:21;;;;;;;19.48;6.78;;;;;;;2.50;79.89;100443.38;5091800;28;20462;-84
2023/12/27 09:05:46;;;;;;;16.33;6.83;;;;;;;2.48;80.01;100442.44;5091525;28;20120;-82
2023/12/27 09:08:12;;;;;;;16.13;6.97;;;;;;;2.51;80.83;100446.88;5091487;28;20126;-81
2023/12/27 09:10:38;;;;;;;16.43;7.30;;;;;;;2.57;80.05;100444.47;5073421;28;20529;-82
2023/12/27 09:13:03;;;;;;;17.27;8.63;;;;;;;2.61;80.30;100435.91;5091576;28;20036;-82
2023/12/27 09:15:29;;;;;;;17.80;7.67;;;;;;;2.60;80.00;100435.91;5073161;28;20135;-81
2023/12/27 09:17:54;;;;;;;16.57;7.43;;;;;;;2.62;80.13;100434.22;5073158;28;20028;-82
2023/12/27 09:20:19;;;;;;;12.65;6.80;;;;;;;2.65;80.27;100442.09;5094497;28;20031;-81
2023/12/27 09:22:45;;;;;;;15.50;6.97;;;;;;;2.71;80.26;100432.78;5092926;28;20103;-81
2023/12/27 09:25:12;;;;;;;18.60;8.83;;;;;;;2.91;80.52;100432.50;5107251;28;20036;-82
2023/12/27 09:27:37;;;;;;;15.98;7.50;;;;;;;3.06;80.11;100433.78;5073167;28;20032;-82
2023/12/27 09:30:04;;;;;;;14.80;7.60;;;;;;;3.17;79.72;100432.41;5090669;28;20063;-81
2023/12/27 09:32:29;;;;;;;15.52;7.22;;;;;;;3.33;79.51;100428.50;5073185;28;20556;-82
2023/12/27 09:34:55;;;;;;;14.63;7.17;;;;;;;3.44;79.79;100421.84;5091418;28;20272;-82
2023/12/27 09:37:20;;;;;;;14.00;6.77;;;;;;;3.62;79.39;100419.69;5090892;28;20039;-82
2023/12/27 09:39:45;;;;;;;13.38;7.85;;;;;;;3.78;79.08;100421.03;5072727;28;20032;-82
2023/12/27 09:42:13;;;;;;;13.10;7.33;;;;;;;3.88;78.90;100418.69;5090926;28;20028;-82
2023/12/27 09:44:40;;;;;;;12.80;6.13;;;;;;;4.02;78.77;100415.53;5090403;28;20125;-83
2023/12/27 09:47:09;;;;;;;13.53;5.87;;;;;;;4.11;78.43;100404.47;5091248;28;20038;-82
2023/12/27 09:49:36;;;;;;;12.10;6.53;;;;;;;4.24;78.52;100401.31;5090999;28;20094;-85
2023/12/27 09:52:02;;;;;;;11.77;6.00;;;;;;;4.39;77.38;100399.91;5090662;28;20103;-82
2023/12/27 09:54:28;;;;;;;11.15;6.07;;;;;;;4.52;77.13;100401.97;5090795;28;20035;-82
2023/12/27 09:56:53;;;;;;;13.40;6.13;;;;;;;4.63;77.39;100396.09;5090752;28;20054;-82
2023/12/27 09:59:27;;;;;;;12.07;6.15;;;;;;;4.79;77.09;100394.69;5090235;28;20028;-82
2023/12/27 10:01:59;;;;;;;12.35;6.20;;;;;;;4.95;77.38;100396.81;5090468;28;20302;-82
2023/12/27 10:05:02;;;;;;;10.93;4.63;;;;;;;5.13;77.29;100393.69;5090462;28;20028;-82
2023/12/27 10:07:28;;;;;;;11.98;6.00;;;;;;;5.30;77.45;100394.03;5090508;28;20344;-82
2023/12/27 10:09:55;;;;;;;11.93;5.90;;;;;;;5.43;76.90;100395.16;5090267;28;20032;-83
2023/12/27 10:12:21;;;;;;;14.10;6.38;;;;;;;5.60;76.85;100386.72;5090369;28;20499;-82
2023/12/27 10:14:48;;;;;;;13.68;5.82;;;;;;;5.75;76.80;100386.13;5071542;28;20038;-82
2023/12/27 10:17:14;;;;;;;12.00;6.07;;;;;;;5.91;76.82;100378.56;5090230;28;20062;-83
2023/12/27 10:19:41;;;;;;;11.65;5.80;;;;;;;6.07;77.29;100377.09;5090192;28;20056;-82
2023/12/27 10:22:07;;;;;;;10.70;5.47;;;;;;;6.23;77.11;100376.50;5089908;28;20125;-82
2023/12/27 10:24:37;;;;;;;11.32;6.10;;;;;;;6.50;77.10;100372.53;5109265;28;20103;-83
2023/12/27 10:27:03;;;;;;;11.02;5.60;;;;;;;6.68;76.40;100365.81;5091774;28;20040;-86
2023/12/27 10:29:30;;;;;;;11.68;5.88;;;;;;;6.93;76.19;100363.50;5089888;28;20044;-83
2023/12/27 10:31:56;;;;;;;11.95;6.20;;;;;;;7.07;76.20;100361.91;5089818;28;20048;-84
2023/12/27 10:34:22;;;;;;;10.00;5.70;;;;;;;7.20;76.11;100360.31;5089857;28;20056;-82
2023/12/27 10:36:50;;;;;;;10.05;5.32;;;;;;;7.37;76.41;100355.28;5089832;28;20051;-85
2023/12/27 10:39:17;;;;;;;11.25;5.70;;;;;;;7.52;76.26;100348.44;5089886;28;20111;-83
2023/12/27 10:41:43;;;;;;;12.32;6.13;;;;;;;7.71;76.68;100342.50;5089664;28;20027;-83
2023/12/27 10:44:09;;;;;;;11.13;5.33;;;;;;;7.98;76.34;100334.88;5089575;28;20024;-82
2023/12/27 10:46:37;;;;;;;9.45;4.60;;;;;;;8.17;76.58;100333.25;5089907;28;20332;-83
2023/12/27 10:49:04;;;;;;;12.93;4.83;;;;;;;8.52;76.52;100337.84;5089965;28;20020;-84
2023/12/27 10:51:30;;;;;;;7.72;3.97;;;;;;;8.87;76.14;100329.28;5090024;28;20477;-83
2023/12/27 10:53:59;;;;;;;9.27;4.50;;;;;;;9.34;74.97;100324.16;5089612;28;20036;-84
2023/12/27 10:56:25;;;;;;;8.40;3.83;;;;;;;9.56;74.56;100313.69;5071271;28;20047;-83
2023/12/27 10:58:55;;;;;;;10.13;5.20;;;;;;;9.68;74.76;100303.16;5088976;28;20028;-83
2023/12/27 11:01:21;;;;;;;8.97;3.73;;;;;;;9.97;74.18;100304.03;5089928;28;20020;-83
2023/12/27 11:03:48;;;;;;;13.07;4.55;;;;;;;10.08;73.55;100301.41;5089683;28;20020;-83
2023/12/27 11:06:16;;;;;;;9.93;4.40;;;;;;;10.31;72.90;100299.59;5071526;28;20103;-84
2023/12/27 11:08:44;;;;;;;11.23;4.47;;;;;;;10.39;72.97;100290.78;5089532;28;20122;-83
2023/12/27 11:11:13;;;;;;;9.23;4.00;;;;;;;10.56;72.58;100277.59;5071402;28;20036;-83
2023/12/27 11:13:39;;;;;;;9.87;4.27;;;;;;;10.70;71.70;100275.78;5089568;28;20024;-84
2023/12/27 11:16:07;;;;;;;11.68;4.20;;;;;;;10.75;71.49;100267.88;5089016;28;20027;-84
2023/12/27 11:18:35;;;;;;;10.93;4.45;;;;;;;10.78;71.75;100259.97;5071334;28;20502;-83